sensor_id;sensor_type;location;lat;lon;timestamp;pressure;altitude;pressure_sealevel;temperature;humidity
6144;BME280;3103;49.492;8.474;2022-07-23T00:00:17;100417.81;;;26.24;46.57
6144;BME280;3103;49.492;8.474;2022-07-23T00:02:46;100417.47;;;26.13;46.73
6144;BME280;3103;49.492;8.474;2022-07-23T00:05:14;100426.53;;;26.26;46.17
6144;BME280;3103;49.492;8.474;2022-07-23T00:07:41;100441.09;;;26.14;46.68
6144;BME280;3103;49.492;8.474;2022-07-23T00:10:08;100450.72;;;25.96;47.24
6144;BME280;3103;49.492;8.474;2022-07-23T00:12:37;100454.97;;;26.18;46.82
6144;BME280;3103;49.492;8.474;2022-07-23T00:15:17;100450.16;;;25.90;47.93
6144;BME280;3103;49.492;8.474;2022-07-23T00:17:45;100439.28;;;26.06;47.33
6144;BME280;3103;49.492;8.474;2022-07-23T00:20:12;100435.50;;;26.11;47.62
6144;BME280;3103;49.492;8.474;2022-07-23T00:22:49;100425.63;;;26.10;47.54
6144;BME280;3103;49.492;8.474;2022-07-23T00:25:17;100414.81;;;26.29;46.99
6144;BME280;3103;49.492;8.474;2022-07-23T00:27:59;100416.22;;;26.23;46.99
6144;BME280;3103;49.492;8.474;2022-07-23T00:30:27;100421.94;;;26.18;46.95
6144;BME280;3103;49.492;8.474;2022-07-23T00:32:58;100417.03;;;26.23;46.78
6144;BME280;3103;49.492;8.474;2022-07-23T00:35:28;100426.66;;;26.05;47.05
6144;BME280;3103;49.492;8.474;2022-07-23T00:37:56;100425.63;;;25.97;47.34
6144;BME280;3103;49.492;8.474;2022-07-23T00:40:23;100418.72;;;26.03;46.97
6144;BME280;3103;49.492;8.474;2022-07-23T00:42:51;100412.09;;;25.92;47.20
6144;BME280;3103;49.492;8.474;2022-07-23T00:45:18;100409.91;;;25.98;47.34
6144;BME280;3103;49.492;8.474;2022-07-23T00:47:45;100423.44;;;26.03;47.33
6144;BME280;3103;49.492;8.474;2022-07-23T00:50:12;100408.88;;;26.15;46.74
6144;BME280;3103;49.492;8.474;2022-07-23T00:52:40;100420.34;;;25.92;47.14
6144;BME280;3103;49.492;8.474;2022-07-23T00:55:08;100426.19;;;25.91;47.39
6144;BME280;3103;49.492;8.474;2022-07-23T00:57:36;100428.63;;;26.04;47.11
6144;BME280;3103;49.492;8.474;2022-07-23T01:00:05;100416.53;;;25.85;47.92
6144;BME280;3103;49.492;8.474;2022-07-23T01:02:33;100419.81;;;25.66;48.17
6144;BME280;3103;49.492;8.474;2022-07-23T01:05:00;100432.75;;;25.65;48.40
6144;BME280;3103;49.492;8.474;2022-07-23T01:07:28;100437.81;;;25.63;48.64
6144;BME280;3103;49.492;8.474;2022-07-23T01:09:55;100443.66;;;25.62;48.62
6144;BME280;3103;49.492;8.474;2022-07-23T01:12:22;100447.06;;;25.59;48.90
6144;BME280;3103;49.492;8.474;2022-07-23T01:14:57;100444.38;;;25.71;48.67
6144;BME280;3103;49.492;8.474;2022-07-23T01:17:26;100438.41;;;25.69;48.51
6144;BME280;3103;49.492;8.474;2022-07-23T01:19:53;100442.34;;;25.80;48.46
6144;BME280;3103;49.492;8.474;2022-07-23T01:22:20;100436.84;;;25.80;48.15
6144;BME280;3103;49.492;8.474;2022-07-23T01:24:48;100433.63;;;25.78;48.53
6144;BME280;3103;49.492;8.474;2022-07-23T01:27:20;100434.91;;;25.60;48.89
6144;BME280;3103;49.492;8.474;2022-07-23T01:29:50;100422.88;;;25.52;48.94
6144;BME280;3103;49.492;8.474;2022-07-23T01:32:19;100413.94;;;25.55;48.93
6144;BME280;3103;49.492;8.474;2022-07-23T01:34:47;100403.81;;;25.47;49.28
6144;BME280;3103;49.492;8.474;2022-07-23T01:37:14;100406.56;;;25.47;48.92
6144;BME280;3103;49.492;8.474;2022-07-23T01:39:41;100403.31;;;25.33;49.53
6144;BME280;3103;49.492;8.474;2022-07-23T01:42:08;100415.28;;;25.37;49.24
6144;BME280;3103;49.492;8.474;2022-07-23T01:44:35;100418.56;;;25.30;49.51
6144;BME280;3103;49.492;8.474;2022-07-23T01:47:02;100424.31;;;25.37;49.50
6144;BME280;3103;49.492;8.474;2022-07-23T01:49:30;100425.53;;;25.28;50.01
6144;BME280;3103;49.492;8.474;2022-07-23T01:51:59;100430.63;;;25.38;49.19
6144;BME280;3103;49.492;8.474;2022-07-23T01:54:33;100441.16;;;25.36;49.79
6144;BME280;3103;49.492;8.474;2022-07-23T01:57:02;100438.91;;;25.50;49.46
6144;BME280;3103;49.492;8.474;2022-07-23T01:59:29;100430.41;;;25.43;49.23
6144;BME280;3103;49.492;8.474;2022-07-23T02:01:57;100423.75;;;25.44;49.19
6144;BME280;3103;49.492;8.474;2022-07-23T02:04:25;100425.63;;;25.52;48.83
6144;BME280;3103;49.492;8.474;2022-07-23T02:06:52;100423.56;;;25.49;48.70
6144;BME280;3103;49.492;8.474;2022-07-23T02:09:19;100431.78;;;25.37;49.11
6144;BME280;3103;49.492;8.474;2022-07-23T02:11:47;100428.06;;;25.33;49.62
6144;BME280;3103;49.492;8.474;2022-07-23T02:14:14;100430.16;;;25.36;49.30
6144;BME280;3103;49.492;8.474;2022-07-23T02:16:40;100432.22;;;25.39;49.31
6144;BME280;3103;49.492;8.474;2022-07-23T02:19:07;100424.97;;;25.22;50.07
6144;BME280;3103;49.492;8.474;2022-07-23T02:21:36;100415.09;;;25.21;49.94
6144;BME280;3103;49.492;8.474;2022-07-23T02:24:04;100414.84;;;25.14;49.94
6144;BME280;3103;49.492;8.474;2022-07-23T02:26:31;100423.63;;;25.07;50.13
6144;BME280;3103;49.492;8.474;2022-07-23T02:29:04;100416.03;;;25.04;50.10
6144;BME280;3103;49.492;8.474;2022-07-23T02:31:32;100427.84;;;25.05;50.29
6144;BME280;3103;49.492;8.474;2022-07-23T02:33:59;100430.66;;;24.96;50.53
6144;BME280;3103;49.492;8.474;2022-07-23T02:36:27;100426.13;;;25.00;50.77
6144;BME280;3103;49.492;8.474;2022-07-23T02:38:54;100419.00;;;25.20;50.23
6144;BME280;3103;49.492;8.474;2022-07-23T02:41:21;100429.31;;;25.02;50.75
6144;BME280;3103;49.492;8.474;2022-07-23T02:43:48;100418.97;;;24.99;51.08
6144;BME280;3103;49.492;8.474;2022-07-23T02:46:15;100409.34;;;24.93;51.14
6144;BME280;3103;49.492;8.474;2022-07-23T02:48:42;100418.91;;;24.87;51.48
6144;BME280;3103;49.492;8.474;2022-07-23T02:51:09;100421.31;;;24.88;51.81
6144;BME280;3103;49.492;8.474;2022-07-23T02:53:45;100422.75;;;24.95;51.44
6144;BME280;3103;49.492;8.474;2022-07-23T02:56:12;100425.63;;;24.98;51.43
6144;BME280;3103;49.492;8.474;2022-07-23T02:58:41;100425.97;;;24.97;51.21
6144;BME280;3103;49.492;8.474;2022-07-23T03:01:08;100430.13;;;24.82;51.82
6144;BME280;3103;49.492;8.474;2022-07-23T03:03:35;100447.88;;;24.84;51.89
6144;BME280;3103;49.492;8.474;2022-07-23T03:06:02;100478.00;;;24.72;52.21
6144;BME280;3103;49.492;8.474;2022-07-23T03:08:28;100495.63;;;24.71;52.51
6144;BME280;3103;49.492;8.474;2022-07-23T03:10:56;100493.78;;;24.84;52.50
6144;BME280;3103;49.492;8.474;2022-07-23T03:13:22;100511.06;;;24.84;52.32
6144;BME280;3103;49.492;8.474;2022-07-23T03:15:52;100510.72;;;24.86;52.58
6144;BME280;3103;49.492;8.474;2022-07-23T03:18:19;100498.25;;;24.88;52.67
6144;BME280;3103;49.492;8.474;2022-07-23T03:20:45;100488.00;;;24.77;52.70
6144;BME280;3103;49.492;8.474;2022-07-23T03:23:12;100496.72;;;24.79;52.67
6144;BME280;3103;49.492;8.474;2022-07-23T03:25:39;100497.91;;;24.69;53.00
6144;BME280;3103;49.492;8.474;2022-07-23T03:28:07;100499.31;;;24.75;52.84
6144;BME280;3103;49.492;8.474;2022-07-23T03:30:33;100502.97;;;24.58;53.24
6144;BME280;3103;49.492;8.474;2022-07-23T03:33:00;100499.84;;;24.39;53.88
6144;BME280;3103;49.492;8.474;2022-07-23T03:35:27;100495.72;;;24.16;54.65
6144;BME280;3103;49.492;8.474;2022-07-23T03:38:13;100499.53;;;24.41;54.17
6144;BME280;3103;49.492;8.474;2022-07-23T03:40:40;100493.00;;;24.54;53.84
6144;BME280;3103;49.492;8.474;2022-07-23T03:43:07;100491.94;;;24.67;53.49
6144;BME280;3103;49.492;8.474;2022-07-23T03:45:35;100489.94;;;24.76;53.56
6144;BME280;3103;49.492;8.474;2022-07-23T03:48:03;100488.50;;;24.79;53.67
6144;BME280;3103;49.492;8.474;2022-07-23T03:50:30;100467.97;;;24.76;53.84
6144;BME280;3103;49.492;8.474;2022-07-23T03:52:56;100460.84;;;24.75;54.12
6144;BME280;3103;49.492;8.474;2022-07-23T03:55:23;100470.16;;;24.62;54.28
6144;BME280;3103;49.492;8.474;2022-07-23T03:57:50;100479.28;;;24.45;54.70
6144;BME280;3103;49.492;8.474;2022-07-23T04:00:17;100498.63;;;24.57;54.35
6144;BME280;3103;49.492;8.474;2022-07-23T04:02:48;100497.22;;;24.51;54.46
6144;BME280;3103;49.492;8.474;2022-07-23T04:05:16;100486.78;;;24.66;54.46
6144;BME280;3103;49.492;8.474;2022-07-23T04:07:45;100484.84;;;24.66;55.00
6144;BME280;3103;49.492;8.474;2022-07-23T04:10:12;100499.22;;;24.63;55.14
6144;BME280;3103;49.492;8.474;2022-07-23T04:12:39;100503.41;;;24.69;55.00
6144;BME280;3103;49.492;8.474;2022-07-23T04:15:07;100530.97;;;24.52;55.60
6144;BME280;3103;49.492;8.474;2022-07-23T04:17:35;100544.06;;;24.46;56.13
6144;BME280;3103;49.492;8.474;2022-07-23T04:20:02;100556.72;;;24.30;56.50
6144;BME280;3103;49.492;8.474;2022-07-23T04:22:36;100569.97;;;24.19;56.83
6144;BME280;3103;49.492;8.474;2022-07-23T04:25:03;100575.78;;;24.26;56.67
6144;BME280;3103;49.492;8.474;2022-07-23T04:27:30;100569.50;;;24.17;57.00
6144;BME280;3103;49.492;8.474;2022-07-23T04:29:59;100577.97;;;23.95;57.87
6144;BME280;3103;49.492;8.474;2022-07-23T04:32:29;100571.47;;;24.08;57.40
6144;BME280;3103;49.492;8.474;2022-07-23T04:34:56;100566.72;;;24.35;56.67
6144;BME280;3103;49.492;8.474;2022-07-23T04:37:23;100594.03;;;24.22;57.10
6144;BME280;3103;49.492;8.474;2022-07-23T04:39:50;100585.81;;;24.14;58.74
6144;BME280;3103;49.492;8.474;2022-07-23T04:42:16;100571.28;;;24.22;59.58
6144;BME280;3103;49.492;8.474;2022-07-23T04:44:43;100576.59;;;24.18;59.85
6144;BME280;3103;49.492;8.474;2022-07-23T04:47:10;100581.09;;;24.32;60.90
6144;BME280;3103;49.492;8.474;2022-07-23T04:49:41;100591.47;;;24.17;61.81
6144;BME280;3103;49.492;8.474;2022-07-23T04:52:08;100587.75;;;24.05;62.03
6144;BME280;3103;49.492;8.474;2022-07-23T04:54:35;100588.94;;;23.95;62.41
6144;BME280;3103;49.492;8.474;2022-07-23T04:57:02;100600.41;;;23.80;62.81
6144;BME280;3103;49.492;8.474;2022-07-23T04:59:30;100591.19;;;23.76;63.23
6144;BME280;3103;49.492;8.474;2022-07-23T05:02:01;100606.03;;;23.92;62.98
6144;BME280;3103;49.492;8.474;2022-07-23T05:04:28;100619.75;;;24.01;63.47
6144;BME280;3103;49.492;8.474;2022-07-23T05:06:56;100620.06;;;23.99;64.13
6144;BME280;3103;49.492;8.474;2022-07-23T05:09:23;100612.66;;;23.91;64.19
6144;BME280;3103;49.492;8.474;2022-07-23T05:11:50;100602.31;;;23.88;64.66
6144;BME280;3103;49.492;8.474;2022-07-23T05:14:21;100604.59;;;23.94;65.27
6144;BME280;3103;49.492;8.474;2022-07-23T05:16:48;100614.25;;;24.01;65.34
6144;BME280;3103;49.492;8.474;2022-07-23T05:19:21;100628.97;;;23.87;65.86
6144;BME280;3103;49.492;8.474;2022-07-23T05:21:51;100631.00;;;23.47;67.35
6144;BME280;3103;49.492;8.474;2022-07-23T05:24:18;100613.78;;;23.64;67.16
6144;BME280;3103;49.492;8.474;2022-07-23T05:26:44;100601.34;;;23.75;66.48
6144;BME280;3103;49.492;8.474;2022-07-23T05:29:11;100604.59;;;23.77;66.68
6144;BME280;3103;49.492;8.474;2022-07-23T05:31:38;100599.44;;;23.84;66.97
6144;BME280;3103;49.492;8.474;2022-07-23T05:34:05;100592.19;;;23.80;67.52
6144;BME280;3103;49.492;8.474;2022-07-23T05:36:33;100588.78;;;23.74;68.58
6144;BME280;3103;49.492;8.474;2022-07-23T05:39:01;100587.81;;;23.53;69.86
6144;BME280;3103;49.492;8.474;2022-07-23T05:41:33;100575.50;;;23.50;69.50
6144;BME280;3103;49.492;8.474;2022-07-23T05:44:02;100560.88;;;23.63;68.09
6144;BME280;3103;49.492;8.474;2022-07-23T05:46:30;100552.16;;;23.44;69.71
6144;BME280;3103;49.492;8.474;2022-07-23T05:49:02;100578.72;;;23.09;71.25
6144;BME280;3103;49.492;8.474;2022-07-23T05:52:03;100592.03;;;22.93;70.87
6144;BME280;3103;49.492;8.474;2022-07-23T05:55:07;100592.13;;;23.28;69.75
6144;BME280;3103;49.492;8.474;2022-07-23T05:57:36;100587.28;;;23.25;70.19
6144;BME280;3103;49.492;8.474;2022-07-23T06:00:04;100593.44;;;23.39;69.49
6144;BME280;3103;49.492;8.474;2022-07-23T06:02:39;100590.69;;;23.48;69.09
6144;BME280;3103;49.492;8.474;2022-07-23T06:05:09;100598.78;;;23.61;68.58
6144;BME280;3103;49.492;8.474;2022-07-23T06:07:38;100598.13;;;23.73;67.98
6144;BME280;3103;49.492;8.474;2022-07-23T06:10:05;100602.66;;;23.69;68.42
6144;BME280;3103;49.492;8.474;2022-07-23T06:12:32;100617.00;;;23.92;67.21
6144;BME280;3103;49.492;8.474;2022-07-23T06:15:00;100624.25;;;24.22;66.91
6144;BME280;3103;49.492;8.474;2022-07-23T06:17:29;100629.91;;;24.09;66.16
6144;BME280;3103;49.492;8.474;2022-07-23T06:19:56;100629.13;;;23.74;68.10
6144;BME280;3103;49.492;8.474;2022-07-23T06:22:23;100629.59;;;23.58;69.70
6144;BME280;3103;49.492;8.474;2022-07-23T06:24:50;100636.53;;;23.64;69.45
6144;BME280;3103;49.492;8.474;2022-07-23T06:27:20;100649.66;;;23.19;69.83
6144;BME280;3103;49.492;8.474;2022-07-23T06:29:51;100651.00;;;23.39;67.68
6144;BME280;3103;49.492;8.474;2022-07-23T06:32:19;100661.91;;;23.13;68.71
6144;BME280;3103;49.492;8.474;2022-07-23T06:34:45;100659.28;;;22.99;69.87
6144;BME280;3103;49.492;8.474;2022-07-23T06:37:14;100668.84;;;23.10;70.07
6144;BME280;3103;49.492;8.474;2022-07-23T06:39:45;100666.94;;;23.28;69.64
6144;BME280;3103;49.492;8.474;2022-07-23T06:42:12;100674.00;;;23.21;70.00
6144;BME280;3103;49.492;8.474;2022-07-23T06:44:44;100658.25;;;23.35;68.11
6144;BME280;3103;49.492;8.474;2022-07-23T06:47:10;100643.31;;;23.58;67.20
6144;BME280;3103;49.492;8.474;2022-07-23T06:49:37;100647.47;;;23.56;67.32
6144;BME280;3103;49.492;8.474;2022-07-23T06:52:04;100636.69;;;23.77;66.73
6144;BME280;3103;49.492;8.474;2022-07-23T06:54:32;100645.09;;;23.89;66.21
6144;BME280;3103;49.492;8.474;2022-07-23T06:56:59;100637.69;;;23.81;66.67
6144;BME280;3103;49.492;8.474;2022-07-23T06:59:26;100635.09;;;23.93;65.50
6144;BME280;3103;49.492;8.474;2022-07-23T07:01:53;100635.91;;;23.93;65.76
6144;BME280;3103;49.492;8.474;2022-07-23T07:04:22;100623.00;;;23.85;66.19
6144;BME280;3103;49.492;8.474;2022-07-23T07:06:48;100622.19;;;23.93;64.92
6144;BME280;3103;49.492;8.474;2022-07-23T07:09:15;100634.75;;;23.77;65.97
6144;BME280;3103;49.492;8.474;2022-07-23T07:11:42;100643.47;;;23.62;67.13
6144;BME280;3103;49.492;8.474;2022-07-23T07:14:09;100646.88;;;23.67;66.77
6144;BME280;3103;49.492;8.474;2022-07-23T07:16:36;100654.28;;;23.58;68.23
6144;BME280;3103;49.492;8.474;2022-07-23T07:19:02;100666.53;;;23.61;68.27
6144;BME280;3103;49.492;8.474;2022-07-23T07:21:30;100671.88;;;23.57;68.10
6144;BME280;3103;49.492;8.474;2022-07-23T07:23:57;100670.91;;;23.62;68.10
6144;BME280;3103;49.492;8.474;2022-07-23T07:26:24;100674.63;;;23.66;68.93
6144;BME280;3103;49.492;8.474;2022-07-23T07:28:50;100680.91;;;24.01;67.64
6144;BME280;3103;49.492;8.474;2022-07-23T07:31:17;100669.94;;;24.36;64.79
6144;BME280;3103;49.492;8.474;2022-07-23T07:33:44;100672.13;;;24.68;63.24
6144;BME280;3103;49.492;8.474;2022-07-23T07:36:11;100683.50;;;24.96;61.87
6144;BME280;3103;49.492;8.474;2022-07-23T07:38:44;100692.13;;;24.77;60.77
6144;BME280;3103;49.492;8.474;2022-07-23T07:41:11;100693.09;;;24.81;61.44
6144;BME280;3103;49.492;8.474;2022-07-23T07:43:38;100704.63;;;24.57;59.96
6144;BME280;3103;49.492;8.474;2022-07-23T07:46:05;100702.69;;;24.58;59.46
6144;BME280;3103;49.492;8.474;2022-07-23T07:48:37;100702.66;;;24.67;59.88
6144;BME280;3103;49.492;8.474;2022-07-23T07:51:04;100708.91;;;24.76;59.92
6144;BME280;3103;49.492;8.474;2022-07-23T07:53:32;100715.22;;;24.76;59.07
6144;BME280;3103;49.492;8.474;2022-07-23T07:55:59;100707.91;;;25.06;58.81
6144;BME280;3103;49.492;8.474;2022-07-23T07:58:25;100717.34;;;25.26;57.80
6144;BME280;3103;49.492;8.474;2022-07-23T08:00:52;100714.78;;;25.51;56.57
6144;BME280;3103;49.492;8.474;2022-07-23T08:03:19;100708.84;;;25.69;56.14
6144;BME280;3103;49.492;8.474;2022-07-23T08:05:47;100718.84;;;25.74;55.24
6144;BME280;3103;49.492;8.474;2022-07-23T08:08:13;100725.44;;;25.52;56.10
6144;BME280;3103;49.492;8.474;2022-07-23T08:10:42;100710.59;;;25.15;56.72
6144;BME280;3103;49.492;8.474;2022-07-23T08:13:13;100718.44;;;24.87;57.21
6144;BME280;3103;49.492;8.474;2022-07-23T08:15:41;100716.53;;;24.79;57.59
6144;BME280;3103;49.492;8.474;2022-07-23T08:18:10;100722.63;;;24.93;57.30
6144;BME280;3103;49.492;8.474;2022-07-23T08:20:36;100722.75;;;25.05;56.87
6144;BME280;3103;49.492;8.474;2022-07-23T08:23:05;100728.78;;;25.37;56.21
6144;BME280;3103;49.492;8.474;2022-07-23T08:25:41;100720.91;;;25.48;55.23
6144;BME280;3103;49.492;8.474;2022-07-23T08:28:10;100729.47;;;25.55;55.43
6144;BME280;3103;49.492;8.474;2022-07-23T08:30:38;100729.47;;;25.55;54.54
6144;BME280;3103;49.492;8.474;2022-07-23T08:33:07;100734.44;;;25.70;54.16
6144;BME280;3103;49.492;8.474;2022-07-23T08:35:57;100732.28;;;26.38;53.87
6144;BME280;3103;49.492;8.474;2022-07-23T08:38:24;100724.50;;;26.40;51.29
6144;BME280;3103;49.492;8.474;2022-07-23T08:40:54;100733.94;;;26.30;52.17
6144;BME280;3103;49.492;8.474;2022-07-23T08:43:26;100734.25;;;25.96;51.50
6144;BME280;3103;49.492;8.474;2022-07-23T08:45:55;100734.50;;;26.03;52.42
6144;BME280;3103;49.492;8.474;2022-07-23T08:48:32;100736.25;;;26.08;53.19
6144;BME280;3103;49.492;8.474;2022-07-23T08:51:01;100733.41;;;26.16;52.00
6144;BME280;3103;49.492;8.474;2022-07-23T08:53:29;100739.00;;;25.87;52.33
6144;BME280;3103;49.492;8.474;2022-07-23T08:55:59;100743.44;;;25.79;52.27
6144;BME280;3103;49.492;8.474;2022-07-23T08:58:26;100731.38;;;25.63;53.40
6144;BME280;3103;49.492;8.474;2022-07-23T09:00:55;100728.25;;;25.73;53.99
6144;BME280;3103;49.492;8.474;2022-07-23T09:03:28;100725.56;;;25.85;53.37
6144;BME280;3103;49.492;8.474;2022-07-23T09:05:57;100731.56;;;26.08;52.50
6144;BME280;3103;49.492;8.474;2022-07-23T09:08:34;100728.78;;;25.87;52.58
6144;BME280;3103;49.492;8.474;2022-07-23T09:11:03;100727.47;;;25.93;53.24
6144;BME280;3103;49.492;8.474;2022-07-23T09:13:41;100730.56;;;25.92;53.76
6144;BME280;3103;49.492;8.474;2022-07-23T09:16:18;100735.00;;;26.05;53.84
6144;BME280;3103;49.492;8.474;2022-07-23T09:18:52;100731.06;;;26.27;52.33
6144;BME280;3103;49.492;8.474;2022-07-23T09:21:31;100721.31;;;26.50;53.92
6144;BME280;3103;49.492;8.474;2022-07-23T09:24:05;100717.00;;;26.74;52.35
6144;BME280;3103;49.492;8.474;2022-07-23T09:26:52;100720.94;;;26.85;51.74
6144;BME280;3103;49.492;8.474;2022-07-23T09:29:22;100722.31;;;26.79;51.89
6144;BME280;3103;49.492;8.474;2022-07-23T09:34:31;100720.63;;;26.53;51.59
6144;BME280;3103;49.492;8.474;2022-07-23T09:37:17;100723.09;;;25.92;53.75
6144;BME280;3103;49.492;8.474;2022-07-23T09:39:45;100727.97;;;26.28;54.00
6144;BME280;3103;49.492;8.474;2022-07-23T09:44:42;100727.09;;;26.70;53.11
6144;BME280;3103;49.492;8.474;2022-07-23T09:47:09;100725.22;;;26.95;52.78
6144;BME280;3103;49.492;8.474;2022-07-23T09:49:36;100723.16;;;26.91;52.65
6144;BME280;3103;49.492;8.474;2022-07-23T09:52:03;100730.50;;;27.00;51.29
6144;BME280;3103;49.492;8.474;2022-07-23T09:54:38;100728.06;;;26.98;51.69
6144;BME280;3103;49.492;8.474;2022-07-23T09:57:08;100723.75;;;27.09;51.35
6144;BME280;3103;49.492;8.474;2022-07-23T09:59:39;100721.47;;;26.66;51.45
6144;BME280;3103;49.492;8.474;2022-07-23T10:02:08;100728.50;;;26.88;51.91
6144;BME280;3103;49.492;8.474;2022-07-23T10:04:48;100727.31;;;27.10;51.46
6144;BME280;3103;49.492;8.474;2022-07-23T10:07:32;100734.09;;;27.12;51.23
6144;BME280;3103;49.492;8.474;2022-07-23T10:10:04;100729.28;;;27.09;51.01
6144;BME280;3103;49.492;8.474;2022-07-23T10:12:53;100727.28;;;26.98;50.48
6144;BME280;3103;49.492;8.474;2022-07-23T10:15:29;100727.97;;;26.95;50.58
6144;BME280;3103;49.492;8.474;2022-07-23T10:17:56;100726.75;;;27.04;52.99
6144;BME280;3103;49.492;8.474;2022-07-23T10:20:23;100720.56;;;27.32;51.20
6144;BME280;3103;49.492;8.474;2022-07-23T10:23:02;100719.25;;;26.59;49.96
6144;BME280;3103;49.492;8.474;2022-07-23T10:25:39;100712.16;;;26.04;51.78
6144;BME280;3103;49.492;8.474;2022-07-23T10:28:29;100708.56;;;26.25;51.54
6144;BME280;3103;49.492;8.474;2022-07-23T10:31:13;100709.78;;;26.69;51.83
6144;BME280;3103;49.492;8.474;2022-07-23T10:34:09;100711.06;;;26.84;50.47
6144;BME280;3103;49.492;8.474;2022-07-23T10:36:49;100708.78;;;26.98;49.98
6144;BME280;3103;49.492;8.474;2022-07-23T10:39:22;100709.72;;;27.02;50.19
6144;BME280;3103;49.492;8.474;2022-07-23T10:41:49;100709.06;;;27.17;50.01
6144;BME280;3103;49.492;8.474;2022-07-23T10:44:20;100717.91;;;27.23;49.06
6144;BME280;3103;49.492;8.474;2022-07-23T10:49:35;100714.25;;;27.31;48.43
6144;BME280;3103;49.492;8.474;2022-07-23T10:57:29;100714.09;;;27.15;49.50
6144;BME280;3103;49.492;8.474;2022-07-23T11:02:43;100706.28;;;27.30;48.57
6144;BME280;3103;49.492;8.474;2022-07-23T11:05:17;100706.41;;;27.09;49.24
6144;BME280;3103;49.492;8.474;2022-07-23T11:10:38;100709.38;;;27.40;48.30
6144;BME280;3103;49.492;8.474;2022-07-23T11:13:42;100708.38;;;27.45;48.13
6144;BME280;3103;49.492;8.474;2022-07-23T11:16:21;100707.78;;;27.64;47.57
6144;BME280;3103;49.492;8.474;2022-07-23T11:18:55;100716.28;;;27.71;46.50
6144;BME280;3103;49.492;8.474;2022-07-23T11:24:00;100714.13;;;28.04;45.64
6144;BME280;3103;49.492;8.474;2022-07-23T11:32:03;100710.53;;;28.16;45.09
6144;BME280;3103;49.492;8.474;2022-07-23T11:34:41;100691.72;;;27.94;45.63
6144;BME280;3103;49.492;8.474;2022-07-23T11:37:10;100700.59;;;28.15;45.39
6144;BME280;3103;49.492;8.474;2022-07-23T11:39:38;100694.53;;;28.09;45.58
6144;BME280;3103;49.492;8.474;2022-07-23T11:42:07;100696.22;;;28.26;44.08
6144;BME280;3103;49.492;8.474;2022-07-23T11:44:38;100687.94;;;28.14;43.69
6144;BME280;3103;49.492;8.474;2022-07-23T11:47:08;100691.91;;;28.01;44.26
6144;BME280;3103;49.492;8.474;2022-07-23T11:49:36;100692.91;;;27.80;45.48
6144;BME280;3103;49.492;8.474;2022-07-23T11:52:12;100690.06;;;28.05;44.66
6144;BME280;3103;49.492;8.474;2022-07-23T11:54:52;100675.91;;;28.06;44.97
6144;BME280;3103;49.492;8.474;2022-07-23T11:57:24;100683.97;;;27.99;44.91
6144;BME280;3103;49.492;8.474;2022-07-23T11:59:57;100682.75;;;27.85;45.11
6144;BME280;3103;49.492;8.474;2022-07-23T12:02:24;100673.22;;;27.82;45.33
6144;BME280;3103;49.492;8.474;2022-07-23T12:04:53;100676.56;;;27.88;44.90
6144;BME280;3103;49.492;8.474;2022-07-23T12:10:13;100680.16;;;27.76;45.16
6144;BME280;3103;49.492;8.474;2022-07-23T12:12:52;100675.06;;;27.90;45.05
6144;BME280;3103;49.492;8.474;2022-07-23T12:15:23;100671.53;;;27.77;45.33
6144;BME280;3103;49.492;8.474;2022-07-23T12:17:51;100674.19;;;27.62;45.32
6144;BME280;3103;49.492;8.474;2022-07-23T12:20:22;100667.50;;;27.63;45.65
6144;BME280;3103;49.492;8.474;2022-07-23T12:22:51;100669.03;;;27.60;45.62
6144;BME280;3103;49.492;8.474;2022-07-23T12:25:20;100677.31;;;27.60;45.84
6144;BME280;3103;49.492;8.474;2022-07-23T12:28:02;100677.44;;;27.64;44.99
6144;BME280;3103;49.492;8.474;2022-07-23T12:30:50;100677.16;;;27.57;45.77
6144;BME280;3103;49.492;8.474;2022-07-23T12:33:32;100683.06;;;27.67;45.18
6144;BME280;3103;49.492;8.474;2022-07-23T12:36:01;100677.31;;;27.60;45.80
6144;BME280;3103;49.492;8.474;2022-07-23T12:38:47;100686.72;;;27.59;46.20
6144;BME280;3103;49.492;8.474;2022-07-23T12:41:15;100688.00;;;27.74;46.27
6144;BME280;3103;49.492;8.474;2022-07-23T12:43:44;100682.03;;;28.00;46.02
6144;BME280;3103;49.492;8.474;2022-07-23T12:51:29;100680.09;;;28.28;45.99
6144;BME280;3103;49.492;8.474;2022-07-23T12:54:04;100675.56;;;28.36;45.01
6144;BME280;3103;49.492;8.474;2022-07-23T12:56:34;100682.72;;;28.25;45.18
6144;BME280;3103;49.492;8.474;2022-07-23T12:59:05;100671.19;;;28.07;44.97
6144;BME280;3103;49.492;8.474;2022-07-23T13:01:38;100682.72;;;28.25;44.17
6144;BME280;3103;49.492;8.474;2022-07-23T13:04:06;100678.06;;;28.13;44.86
6144;BME280;3103;49.492;8.474;2022-07-23T13:06:45;100674.06;;;28.38;44.90
6144;BME280;3103;49.492;8.474;2022-07-23T13:09:14;100671.59;;;28.65;43.63
6144;BME280;3103;49.492;8.474;2022-07-23T13:11:42;100670.09;;;28.67;42.87
6144;BME280;3103;49.492;8.474;2022-07-23T13:14:10;100669.34;;;28.55;43.01
6144;BME280;3103;49.492;8.474;2022-07-23T13:16:38;100672.94;;;28.71;42.26
6144;BME280;3103;49.492;8.474;2022-07-23T13:19:06;100670.13;;;28.39;42.54
6144;BME280;3103;49.492;8.474;2022-07-23T13:21:39;100674.84;;;28.39;42.70
6144;BME280;3103;49.492;8.474;2022-07-23T13:24:07;100672.31;;;28.18;43.27
6144;BME280;3103;49.492;8.474;2022-07-23T13:26:35;100679.97;;;28.25;43.67
6144;BME280;3103;49.492;8.474;2022-07-23T13:29:22;100674.94;;;28.15;43.29
6144;BME280;3103;49.492;8.474;2022-07-23T13:31:49;100673.06;;;28.31;43.09
6144;BME280;3103;49.492;8.474;2022-07-23T13:34:17;100668.34;;;28.31;43.44
6144;BME280;3103;49.492;8.474;2022-07-23T13:36:44;100668.53;;;28.38;43.21
6144;BME280;3103;49.492;8.474;2022-07-23T13:39:11;100675.84;;;28.31;42.86
6144;BME280;3103;49.492;8.474;2022-07-23T13:41:38;100669.97;;;28.32;43.25
6144;BME280;3103;49.492;8.474;2022-07-23T13:44:05;100674.84;;;28.39;43.51
6144;BME280;3103;49.492;8.474;2022-07-23T13:46:34;100662.56;;;28.52;43.25
6144;BME280;3103;49.492;8.474;2022-07-23T13:49:03;100661.50;;;28.57;42.86
6144;BME280;3103;49.492;8.474;2022-07-23T13:51:32;100664.81;;;28.78;41.67
6144;BME280;3103;49.492;8.474;2022-07-23T13:53:59;100662.09;;;28.94;41.44
6144;BME280;3103;49.492;8.474;2022-07-23T13:56:26;100667.56;;;29.25;41.26
6144;BME280;3103;49.492;8.474;2022-07-23T13:58:53;100664.69;;;29.53;39.80